Time;durP1;ratioP1;P1;durP2;ratioP2;P2;SDS_P1;SDS_P2;PMS_P1;PMS_P2;Temp;Humidity;BMP_temperature;BMP_pressure;BME280_temperature;BME280_humidity;BME280_pressure;Samples;Min_cycle;Max_cycle;Signal;HPM_P1;HPM_P2
2021/06/04 00:01:08;;;;;;;19.83;13.32;;;18.80;99.90;;;;;;5089219;28;20573;-77
2021/06/04 00:03:34;;;;;;;19.60;16.00;;;18.80;99.90;;;;;;5084242;28;20036;-77
2021/06/04 00:06:00;;;;;;;18.15;15.88;;;18.70;99.90;;;;;;5088949;28;20110;-77
2021/06/04 00:08:26;;;;;;;17.13;15.32;;;18.60;99.90;;;;;;5090194;28;20036;-77
2021/06/04 00:11:23;;;;;;;17.13;15.43;;;18.40;99.90;;;;;;5088966;28;20024;-77
2021/06/04 00:13:53;;;;;;;19.27;15.07;;;18.50;99.90;;;;;;5076197;28;20036;-77
2021/06/04 00:18:54;;;;;;;16.88;15.15;;;18.50;99.90;;;;;;5222035;22;19982;-75
2021/06/04 00:21:31;;;;;;;17.80;13.82;;;18.40;99.90;;;;;;5045540;28;20037;-75
2021/06/04 00:24:02;;;;;;;17.23;15.45;;;18.40;99.90;;;;;;5043160;28;20040;-75
2021/06/04 00:26:30;;;;;;;19.10;15.02;;;18.30;99.90;;;;;;5038575;28;20091;-75
2021/06/04 00:28:56;;;;;;;16.15;14.30;;;18.20;99.90;;;;;;5032996;28;20049;-75
2021/06/04 00:31:22;;;;;;;20.45;15.02;;;18.20;99.90;;;;;;5050454;28;20099;-75
2021/06/04 00:33:49;;;;;;;15.90;13.95;;;18.40;99.90;;;;;;5047653;28;20025;-75
2021/06/04 00:36:16;;;;;;;16.90;14.05;;;18.40;99.90;;;;;;5036397;28;20030;-75
2021/06/04 00:38:43;;;;;;;21.42;13.95;;;18.40;99.90;;;;;;5049252;28;20029;-75
2021/06/04 00:41:16;;;;;;;17.35;15.50;;;18.30;99.90;;;;;;5040506;28;20037;-75
2021/06/04 00:43:43;;;;;;;17.95;14.75;;;18.20;99.90;;;;;;5051225;28;20025;-75
2021/06/04 00:46:09;;;;;;;17.70;14.80;;;18.10;99.90;;;;;;5055391;28;20510;-74
2021/06/04 00:48:36;;;;;;;16.42;14.68;;;18.00;99.90;;;;;;5039936;28;20025;-75
2021/06/04 00:51:32;;;;;;;15.73;14.23;;;17.80;99.90;;;;;;5041571;28;20071;-75
2021/06/04 00:53:59;;;;;;;18.55;15.63;;;17.60;99.90;;;;;;5052991;28;20021;-75
2021/06/04 00:56:27;;;;;;;18.88;15.52;;;17.60;99.90;;;;;;5036409;28;20041;-75
2021/06/04 00:58:54;;;;;;;16.08;14.38;;;17.50;99.90;;;;;;5036073;28;20482;-75
2021/06/04 01:01:23;;;;;;;17.70;13.98;;;17.60;99.90;;;;;;5035791;28;20029;-75
2021/06/04 01:04:24;;;;;;;16.07;12.23;;;17.60;99.90;;;;;;5052470;28;20032;-75
2021/06/04 01:06:55;;;;;;;;;;;17.50;99.90;;;;;;5005842;28;20096;-75
2021/06/04 01:09:49;;;;;;;12.77;7.15;;;17.40;99.90;;;;;;4995720;28;20341;-74
2021/06/04 01:12:36;;;;;;;8.77;6.88;;;17.20;99.90;;;;;;4977501;28;20054;-75
2021/06/04 01:15:04;;;;;;;6.70;6.15;;;17.10;99.90;;;;;;4974649;28;20042;-74
2021/06/04 01:17:42;;;;;;;6.60;4.50;;;17.10;99.90;;;;;;4982392;28;20381;-75
2021/06/04 01:20:40;;;;;;;4.10;2.88;;;17.00;99.90;;;;;;4995948;28;20530;-75
2021/06/04 01:23:36;;;;;;;3.20;3.00;;;16.90;99.90;;;;;;4993899;28;20037;-75
2021/06/04 01:26:27;;;;;;;4.30;3.05;;;16.80;99.90;;;;;;4992662;28;20438;-75
2021/06/04 01:28:58;;;;;;;3.10;2.90;;;16.80;99.90;;;;;;4959516;28;20043;-75
2021/06/04 01:32:15;;;;;;;2.85;2.33;;;16.70;99.90;;;;;;4987167;28;20092;-75
2021/06/04 01:34:44;;;;;;;2.53;2.35;;;16.60;99.90;;;;;;4937007;28;20493;-74
2021/06/04 01:37:19;;;;;;;1.95;1.75;;;16.60;99.90;;;;;;4946747;29;20050;-74
2021/06/04 01:39:52;;;;;;;4.47;2.58;;;16.50;99.90;;;;;;4952545;28;20051;-74
2021/06/04 01:42:22;;;;;;;2.40;2.20;;;16.50;99.90;;;;;;4966104;28;20047;-74
2021/06/04 01:44:56;;;;;;;2.58;2.38;;;16.60;99.90;;;;;;4973801;28;20038;-74
2021/06/04 01:47:49;;;;;;;2.03;1.92;;;16.40;99.90;;;;;;4941430;28;20083;-74
2021/06/04 01:50:40;;;;;;;2.03;1.90;;;16.50;99.90;;;;;;5005352;28;20034;-74
2021/06/04 01:53:25;;;;;;;2.72;2.10;;;16.50;99.90;;;;;;4996516;28;20069;-74
2021/06/04 01:55:56;;;;;;;3.13;2.17;;;16.40;99.90;;;;;;4973893;28;20038;-76
2021/06/04 01:58:44;;;;;;;3.05;2.17;;;16.40;99.90;;;;;;4973920;28;20513;-76
2021/06/04 02:01:21;;;;;;;2.45;2.20;;;16.40;99.90;;;;;;4998864;28;20038;-77
2021/06/04 02:03:47;;;;;;;2.17;1.98;;;16.40;99.90;;;;;;4988096;28;20034;-77
2021/06/04 02:06:13;;;;;;;2.17;1.98;;;16.40;99.90;;;;;;5030403;28;20029;-77
2021/06/04 02:08:52;;;;;;;1.70;1.60;;;16.40;99.90;;;;;;5034895;28;20044;-75
2021/06/04 02:11:22;;;;;;;1.77;1.67;;;16.40;99.90;;;;;;5033166;28;20112;-75
2021/06/04 02:13:49;;;;;;;1.95;1.77;;;16.40;99.90;;;;;;5034537;28;20117;-75
2021/06/04 02:16:39;;;;;;;2.22;1.60;;;16.30;99.90;;;;;;5035029;28;20314;-75
2021/06/04 02:19:17;;;;;;;;;;;16.30;99.90;;;;;;5034603;28;20095;-75
2021/06/04 02:22:11;;;;;;;1.50;1.40;;;16.20;99.90;;;;;;5059730;28;19909;-75
2021/06/04 02:25:13;;;;;;;3.20;1.50;;;16.30;99.90;;;;;;5034074;28;20087;-76
2021/06/04 02:27:48;;;;;;;1.42;1.33;;;16.20;99.90;;;;;;5047904;28;20037;-75
2021/06/04 02:30:24;;;;;;;1.35;1.25;;;16.10;99.90;;;;;;5033887;28;20037;-76
2021/06/04 02:33:10;;;;;;;1.45;1.20;;;16.10;99.90;;;;;;5034072;28;20029;-76
2021/06/04 02:35:44;;;;;;;1.40;1.30;;;16.10;99.90;;;;;;5034447;28;20449;-75
2021/06/04 02:38:24;;;;;;;1.48;0.80;;;16.20;99.90;;;;;;5042647;28;20029;-76
2021/06/04 02:40:59;;;;;;;0.95;0.95;;;16.20;99.90;;;;;;5037883;28;20502;-75
2021/06/04 02:43:59;;;;;;;2.55;1.20;;;16.20;99.90;;;;;;5034961;28;20037;-76
2021/06/04 02:46:37;;;;;;;1.38;1.00;;;16.30;99.90;;;;;;4992583;28;20035;-76
2021/06/04 02:49:05;;;;;;;0.50;0.50;;;16.20;99.90;;;;;;4993212;28;20057;-75
2021/06/04 02:51:36;;;;;;;0.82;0.73;;;16.10;99.90;;;;;;5001368;28;20112;-75
2021/06/04 02:54:15;;;;;;;2.00;1.15;;;16.10;99.90;;;;;;5011391;28;20064;-76
2021/06/04 02:56:44;;;;;;;1.42;0.70;;;16.10;99.90;;;;;;5010498;28;20507;-76
2021/06/04 02:59:16;;;;;;;0.70;0.70;;;16.20;99.90;;;;;;4994336;28;20173;-75
2021/06/04 03:01:46;;;;;;;0.88;0.75;;;16.20;99.90;;;;;;4994644;28;20519;-75
2021/06/04 03:04:14;;;;;;;3.50;1.25;;;16.20;99.90;;;;;;5003677;28;20089;-75
2021/06/04 03:06:52;;;;;;;2.95;1.48;;;16.40;99.90;;;;;;4992088;28;20169;-76
2021/06/04 03:09:27;;;;;;;1.98;0.75;;;16.30;99.90;;;;;;4991889;28;20042;-75
2021/06/04 03:11:57;;;;;;;2.97;0.68;;;16.20;99.90;;;;;;4996158;28;20061;-75
2021/06/04 03:14:24;;;;;;;0.50;0.50;;;16.20;99.90;;;;;;5008299;28;20045;-76
2021/06/04 03:16:51;;;;;;;0.93;0.40;;;16.20;99.90;;;;;;4992870;28;20030;-75
2021/06/04 03:19:18;;;;;;;0.60;0.60;;;16.20;99.90;;;;;;5002500;28;20228;-75
2021/06/04 03:21:49;;;;;;;0.40;0.40;;;16.20;99.90;;;;;;5034895;28;20037;-75
2021/06/04 03:24:20;;;;;;;0.60;0.50;;;16.10;99.90;;;;;;5033117;28;20034;-76
2021/06/04 03:26:46;;;;;;;0.60;0.60;;;16.10;99.90;;;;;;5040478;28;20029;-76
2021/06/04 03:29:15;;;;;;;1.15;0.50;;;16.10;99.90;;;;;;5046420;28;20461;-75
2021/06/04 03:31:45;;;;;;;2.03;0.50;;;16.10;99.90;;;;;;5053132;28;20029;-75
2021/06/04 03:34:11;;;;;;;;;;;15.90;99.90;;;;;;5041078;28;20033;-75
2021/06/04 03:36:41;;;;;;;1.67;0.70;;;15.90;99.90;;;;;;5034719;28;19944;-75
2021/06/04 03:39:13;;;;;;;0.50;0.50;;;15.90;99.90;;;;;;5031556;28;20032;-75
2021/06/04 03:41:41;;;;;;;0.43;0.43;;;15.90;99.90;;;;;;5035702;28;20471;-76
2021/06/04 03:44:11;;;;;;;0.70;0.70;;;15.80;99.90;;;;;;5045842;28;20072;-75
2021/06/04 03:46:37;;;;;;;1.55;0.60;;;15.80;99.90;;;;;;5048471;28;20143;-77
2021/06/04 03:49:04;;;;;;;1.42;0.82;;;15.70;99.90;;;;;;5035061;28;20041;-76
2021/06/04 03:51:35;;;;;;;1.15;0.70;;;15.70;99.90;;;;;;5037212;28;20383;-77
2021/06/04 03:54:02;;;;;;;0.80;0.80;;;15.70;99.90;;;;;;5040907;28;20029;-76
2021/06/04 03:56:28;;;;;;;1.35;0.52;;;15.80;99.90;;;;;;5041962;28;20037;-75
2021/06/04 03:58:55;;;;;;;0.82;0.80;;;15.80;99.90;;;;;;5038402;28;20376;-76
2021/06/04 04:01:28;;;;;;;0.80;0.80;;;15.80;99.90;;;;;;5032041;28;20063;-76
2021/06/04 04:03:54;;;;;;;2.17;0.63;;;15.80;99.90;;;;;;5031466;28;20450;-76
2021/06/04 04:06:20;;;;;;;2.33;0.60;;;15.90;99.90;;;;;;5031343;28;20104;-75
2021/06/04 04:08:46;;;;;;;2.55;0.90;;;15.70;99.90;;;;;;5042132;28;20532;-76
2021/06/04 04:11:12;;;;;;;0.60;0.60;;;15.80;99.90;;;;;;5032428;28;20029;-76
2021/06/04 04:13:38;;;;;;;0.95;0.80;;;15.80;99.90;;;;;;5035136;28;20025;-76
2021/06/04 04:16:04;;;;;;;0.68;0.68;;;15.90;99.90;;;;;;5036434;28;20034;-75
2021/06/04 04:18:30;;;;;;;0.70;0.70;;;16.00;99.90;;;;;;5041743;28;20042;-76
2021/06/04 04:21:03;;;;;;;2.38;0.60;;;16.00;99.90;;;;;;5047993;28;20047;-75
2021/06/04 04:23:39;;;;;;;1.27;0.65;;;16.00;99.90;;;;;;5044052;28;20026;-75
2021/06/04 04:26:07;;;;;;;0.95;0.80;;;16.10;99.90;;;;;;5048813;28;20060;-76
2021/06/04 04:28:35;;;;;;;2.38;0.60;;;16.00;99.90;;;;;;5032615;28;20448;-76
2021/06/04 04:31:04;;;;;;;1.23;0.50;;;16.10;99.90;;;;;;5034124;28;20040;-75
2021/06/04 04:33:30;;;;;;;0.60;0.55;;;16.10;99.90;;;;;;5032616;28;20040;-75
2021/06/04 04:35:56;;;;;;;1.45;0.73;;;16.20;99.90;;;;;;5031328;28;20764;-76
2021/06/04 04:38:23;;;;;;;0.77;0.77;;;16.30;99.90;;;;;;5046825;28;20040;-76
2021/06/04 04:41:01;;;;;;;0.70;0.70;;;16.40;99.90;;;;;;5044999;28;20036;-76
2021/06/04 04:43:36;;;;;;;0.60;0.60;;;16.40;99.90;;;;;;5038169;28;20030;-76
2021/06/04 04:46:04;;;;;;;1.20;1.10;;;16.40;99.90;;;;;;5031853;28;20390;-77
2021/06/04 04:48:31;;;;;;;1.25;0.50;;;16.30;99.90;;;;;;5060629;28;20505;-76
2021/06/04 04:50:57;;;;;;;3.00;0.90;;;16.40;99.90;;;;;;5045110;28;20041;-75
2021/06/04 04:53:24;;;;;;;1.75;0.70;;;16.50;99.90;;;;;;5037388;28;20036;-76
2021/06/04 04:55:50;;;;;;;2.58;0.95;;;16.20;99.90;;;;;;5045547;28;20025;-76
2021/06/04 04:58:18;;;;;;;1.25;0.80;;;16.20;99.90;;;;;;5046302;28;20040;-76
2021/06/04 05:00:45;;;;;;;1.02;0.90;;;16.40;99.90;;;;;;5043283;28;20025;-76
2021/06/04 05:03:13;;;;;;;0.80;0.70;;;16.60;99.90;;;;;;5047678;28;20050;-76
2021/06/04 05:05:39;;;;;;;0.70;0.70;;;16.60;99.90;;;;;;5045728;28;20033;-76
2021/06/04 05:08:06;;;;;;;0.80;0.55;;;16.70;99.90;;;;;;5039519;28;20103;-75
2021/06/04 05:10:32;;;;;;;1.63;0.80;;;16.70;99.90;;;;;;5040424;28;20068;-75
2021/06/04 05:12:59;;;;;;;5.55;0.98;;;16.60;99.90;;;;;;5030828;28;20046;-76
2021/06/04 05:15:29;;;;;;;0.50;0.50;;;16.80;99.90;;;;;;5040854;28;20075;-76
2021/06/04 05:17:55;;;;;;;;;;;16.80;99.90;;;;;;5051197;28;20100;-75
2021/06/04 05:20:22;;;;;;;0.52;0.50;;;16.80;99.90;;;;;;5045973;28;20000;-75
2021/06/04 05:22:48;;;;;;;2.65;0.95;;;16.70;99.90;;;;;;5046000;28;20029;-76
2021/06/04 05:25:17;;;;;;;2.03;0.75;;;16.50;99.90;;;;;;5048476;28;20061;-77
2021/06/04 05:27:44;;;;;;;2.38;0.77;;;16.50;99.90;;;;;;5041554;28;20029;-76
2021/06/04 05:30:15;;;;;;;1.67;0.93;;;16.60;99.90;;;;;;5041206;28;20021;-75
2021/06/04 05:32:41;;;;;;;1.17;0.50;;;16.70;99.90;;;;;;5051467;28;20029;-76
2021/06/04 05:35:08;;;;;;;1.48;0.60;;;16.70;99.90;;;;;;5039168;28;20047;-76
2021/06/04 05:37:35;;;;;;;1.10;0.50;;;16.70;99.90;;;;;;5049154;28;20023;-77
2021/06/04 05:40:03;;;;;;;0.68;0.68;;;16.60;99.90;;;;;;5038801;28;20037;-77
2021/06/04 05:42:28;;;;;;;1.25;0.52;;;16.50;99.90;;;;;;5039026;28;20400;-77
2021/06/04 05:44:54;;;;;;;0.80;0.75;;;16.40;99.90;;;;;;5047985;28;20025;-77
2021/06/04 05:47:20;;;;;;;0.85;0.47;;;16.50;99.90;;;;;;5040711;28;20528;-77
2021/06/04 05:49:46;;;;;;;0.70;0.70;;;16.40;99.90;;;;;;5047525;28;20033;-76
2021/06/04 05:52:15;;;;;;;0.52;0.50;;;16.50;99.90;;;;;;5041987;28;20060;-76
2021/06/04 05:54:43;;;;;;;1.23;0.50;;;16.70;99.90;;;;;;5049554;28;20052;-76
2021/06/04 05:57:10;;;;;;;0.70;0.55;;;17.00;99.90;;;;;;5046157;28;20025;-76
2021/06/04 05:59:36;;;;;;;0.63;0.47;;;17.00;99.90;;;;;;5038793;28;20067;-76
2021/06/04 06:02:02;;;;;;;0.50;0.50;;;17.00;99.90;;;;;;5051220;28;20052;-80
2021/06/04 06:04:27;;;;;;;2.25;0.50;;;16.80;99.90;;;;;;5068161;28;20032;-77
2021/06/04 06:06:53;;;;;;;3.60;0.60;;;16.80;99.90;;;;;;5054355;28;20386;-77
2021/06/04 06:09:23;;;;;;;2.20;0.70;;;16.80;99.90;;;;;;5054629;28;20028;-77
2021/06/04 06:11:49;;;;;;;0.50;0.40;;;16.90;99.90;;;;;;5054866;28;20139;-77
2021/06/04 06:14:17;;;;;;;0.40;0.40;;;17.00;99.90;;;;;;5055055;28;20491;-77
2021/06/04 06:16:44;;;;;;;0.70;0.32;;;17.10;99.90;;;;;;5049967;28;20029;-77
2021/06/04 06:19:12;;;;;;;2.47;0.68;;;17.30;99.90;;;;;;5032981;28;20048;-77
2021/06/04 06:21:40;;;;;;;2.40;0.68;;;17.40;99.90;;;;;;5054898;28;20028;-77
2021/06/04 06:24:07;;;;;;;1.13;0.50;;;17.40;99.90;;;;;;5074559;28;20362;-77
2021/06/04 06:26:33;;;;;;;0.52;0.30;;;17.40;99.90;;;;;;5058750;28;20021;-78
2021/06/04 06:29:01;;;;;;;0.95;0.50;;;17.20;99.90;;;;;;5054464;28;20394;-78
2021/06/04 06:31:31;;;;;;;0.40;0.40;;;17.10;99.90;;;;;;5053358;28;20032;-78
2021/06/04 06:33:58;;;;;;;0.40;0.30;;;17.20;99.90;;;;;;5053801;28;20041;-77
2021/06/04 06:36:27;;;;;;;1.42;0.70;;;17.20;99.90;;;;;;5053934;28;20461;-78
2021/06/04 06:38:57;;;;;;;2.73;0.73;;;17.30;99.90;;;;;;5053716;28;20061;-78
2021/06/04 06:41:25;;;;;;;0.90;0.52;;;17.40;99.90;;;;;;5053804;28;20032;-77
2021/06/04 06:43:52;;;;;;;2.33;0.70;;;17.60;99.90;;;;;;5046681;28;20091;-77
2021/06/04 06:46:19;;;;;;;2.38;0.65;;;17.60;99.90;;;;;;5033748;28;20018;-78
2021/06/04 06:48:46;;;;;;;1.10;0.50;;;17.50;99.90;;;;;;5053684;28;20029;-78
2021/06/04 06:51:12;;;;;;;2.28;0.40;;;17.70;99.90;;;;;;5043145;28;20215;-78
2021/06/04 06:53:39;;;;;;;0.75;0.50;;;17.60;99.90;;;;;;5033773;28;20425;-78
2021/06/04 06:56:08;;;;;;;1.05;0.45;;;17.60;99.90;;;;;;5038566;28;20461;-77
2021/06/04 06:58:35;;;;;;;0.77;0.77;;;17.50;99.90;;;;;;5052974;28;20082;-78
2021/06/04 07:01:03;;;;;;;1.67;0.30;;;17.30;99.90;;;;;;5053320;28;20143;-77
2021/06/04 07:03:31;;;;;;;2.55;0.60;;;17.20;99.90;;;;;;5053858;28;20029;-78
2021/06/04 07:06:00;;;;;;;0.40;0.40;;;17.40;99.90;;;;;;5036498;28;20021;-80
2021/06/04 07:08:27;;;;;;;0.93;0.30;;;17.70;99.90;;;;;;5033962;28;20037;-77
2021/06/04 07:10:53;;;;;;;1.08;0.40;;;18.10;99.90;;;;;;5032096;28;20701;-77
2021/06/04 07:13:26;;;;;;;3.15;1.08;;;18.30;99.90;;;;;;5033267;28;20040;-78
2021/06/04 07:15:54;;;;;;;2.63;0.45;;;18.20;99.90;;;;;;5033275;28;20030;-77
2021/06/04 07:18:20;;;;;;;1.70;0.52;;;18.10;99.90;;;;;;5032982;28;20107;-77
2021/06/04 07:20:45;;;;;;;0.40;0.40;;;18.10;99.90;;;;;;5033006;28;20076;-77
2021/06/04 07:23:12;;;;;;;0.50;0.40;;;18.20;99.90;;;;;;5069983;28;20028;-77
2021/06/04 07:25:40;;;;;;;0.93;0.40;;;18.10;99.90;;;;;;5072659;28;20134;-78
2021/06/04 07:28:08;;;;;;;0.93;0.65;;;18.20;99.90;;;;;;5072956;28;20130;-77
2021/06/04 07:30:38;;;;;;;1.27;0.50;;;18.10;99.90;;;;;;5072918;28;20024;-77
2021/06/04 07:33:08;;;;;;;1.85;0.60;;;18.10;99.90;;;;;;5072648;28;20448;-77
2021/06/04 07:35:36;;;;;;;0.98;0.82;;;18.10;99.90;;;;;;5072692;28;20029;-77
2021/06/04 07:38:02;;;;;;;2.63;0.70;;;18.30;99.90;;;;;;5072462;28;20044;-78
2021/06/04 07:40:30;;;;;;;1.13;0.93;;;18.00;99.90;;;;;;5072730;28;20100;-77
2021/06/04 07:42:58;;;;;;;1.00;0.98;;;18.00;99.90;;;;;;5072446;28;20490;-77
2021/06/04 07:45:27;;;;;;;2.35;0.90;;;17.90;99.90;;;;;;5072766;28;20549;-78
2021/06/04 07:47:53;;;;;;;1.37;1.00;;;17.80;99.90;;;;;;5072587;28;20024;-77
2021/06/04 07:50:20;;;;;;;1.25;1.15;;;18.10;99.90;;;;;;5072441;28;20033;-77
2021/06/04 07:52:46;;;;;;;1.33;1.13;;;18.00;99.90;;;;;;5071306;28;20031;-77
2021/06/04 07:55:14;;;;;;;1.98;1.10;;;17.90;99.90;;;;;;5072387;28;20058;-77
2021/06/04 07:57:41;;;;;;;0.90;0.90;;;17.90;99.90;;;;;;5072404;28;20025;-77
2021/06/04 08:00:23;;;;;;;0.80;0.80;;;17.90;99.90;;;;;;5072256;28;20362;-77
2021/06/04 08:02:49;;;;;;;2.58;0.88;;;18.00;99.90;;;;;;5072212;28;20026;-77
2021/06/04 08:05:16;;;;;;;1.58;1.20;;;18.10;99.90;;;;;;5072215;28;20036;-77
2021/06/04 08:07:42;;;;;;;1.60;1.42;;;18.00;99.90;;;;;;5071018;28;20032;-78
2021/06/04 08:10:09;;;;;;;1.55;1.10;;;18.10;99.90;;;;;;5072432;28;20103;-77
2021/06/04 08:12:35;;;;;;;4.45;1.77;;;18.20;99.90;;;;;;5072464;28;20025;-77
2021/06/04 08:15:08;;;;;;;3.13;2.05;;;18.20;99.90;;;;;;5072168;28;20040;-77
2021/06/04 08:17:34;;;;;;;3.08;1.70;;;17.80;99.90;;;;;;5072266;28;20409;-77
2021/06/04 08:20:02;;;;;;;2.97;1.60;;;17.60;99.90;;;;;;5071697;28;20048;-77
2021/06/04 08:22:28;;;;;;;3.00;1.95;;;17.60;99.90;;;;;;5072215;28;20059;-78
2021/06/04 08:24:54;;;;;;;4.63;2.30;;;17.60;99.90;;;;;;5072388;28;20052;-77
2021/06/04 08:27:20;;;;;;;4.15;1.98;;;17.70;99.90;;;;;;5072187;28;20029;-77
2021/06/04 08:29:47;;;;;;;3.70;2.83;;;17.70;99.90;;;;;;5072042;28;20109;-78
2021/06/04 08:32:14;;;;;;;4.50;2.38;;;17.70;99.90;;;;;;5071753;28;20025;-77
2021/06/04 08:34:41;;;;;;;2.47;2.10;;;17.60;99.90;;;;;;5072153;28;20451;-78
2021/06/04 08:37:07;;;;;;;3.10;2.45;;;17.80;99.90;;;;;;5071989;28;20048;-77
2021/06/04 08:39:37;;;;;;;5.53;2.92;;;17.90;99.90;;;;;;5072092;28;20047;-77
2021/06/04 08:42:21;;;;;;;7.80;2.97;;;17.80;99.90;;;;;;5071932;28;20125;-78
2021/06/04 08:45:12;;;;;;;4.32;2.55;;;17.80;99.90;;;;;;5070743;28;20406;-77
2021/06/04 08:47:41;;;;;;;3.00;2.45;;;17.80;99.90;;;;;;5071673;28;20079;-77
2021/06/04 08:50:19;;;;;;;3.08;2.65;;;17.90;99.90;;;;;;5071944;28;20025;-77
2021/06/04 08:53:30;;;;;;;3.42;2.20;;;17.80;99.90;;;;;;5072074;28;20033;-77
2021/06/04 08:56:08;;;;;;;3.47;2.10;;;18.00;99.90;;;;;;4992871;28;20046;-78
2021/06/04 08:58:43;;;;;;;1.88;1.30;;;18.00;99.90;;;;;;4994293;28;20105;-77
2021/06/04 09:01:42;;;;;;;0.77;0.77;;;18.00;99.90;;;;;;4993868;28;20044;-77
2021/06/04 09:04:12;;;;;;;1.80;1.07;;;18.00;99.90;;;;;;4994549;28;20057;-77
2021/06/04 09:06:48;;;;;;;1.17;0.88;;;18.10;99.90;;;;;;4994286;28;20039;-77
2021/06/04 09:09:37;;;;;;;2.50;1.25;;;18.00;99.90;;;;;;4994130;28;20042;-77
2021/06/04 09:12:10;;;;;;;1.42;0.90;;;18.00;99.90;;;;;;4977878;28;20057;-77
2021/06/04 09:14:37;;;;;;;1.25;0.77;;;18.10;99.90;;;;;;4994153;28;20042;-78
2021/06/04 09:17:13;;;;;;;2.33;1.27;;;18.30;99.90;;;;;;4993685;28;20038;-77
2021/06/04 09:20:15;;;;;;;1.33;0.90;;;18.50;99.90;;;;;;4993652;28;20492;-77
2021/06/04 09:22:47;;;;;;;1.98;0.90;;;18.50;99.90;;;;;;4991530;28;20039;-77
2021/06/04 09:25:20;;;;;;;1.17;0.80;;;18.60;99.90;;;;;;4993639;28;20097;-77
2021/06/04 09:28:10;;;;;;;1.90;0.90;;;18.40;99.90;;;;;;4993793;28;20105;-78
2021/06/04 09:30:37;;;;;;;1.42;1.33;;;18.30;99.90;;;;;;4993243;28;20045;-77
2021/06/04 09:33:31;;;;;;;0.85;0.70;;;18.00;99.90;;;;;;5045125;28;20033;-77
2021/06/04 09:36:10;;;;;;;1.42;0.82;;;18.00;99.90;;;;;;5075247;28;20052;-77
2021/06/04 09:39:02;;;;;;;0.80;0.70;;;18.20;99.90;;;;;;5075178;28;20044;-77
2021/06/04 09:41:27;;;;;;;1.55;0.47;;;18.40;99.90;;;;;;5074765;28;20036;-78
2021/06/04 09:44:14;;;;;;;0.57;0.57;;;18.70;99.90;;;;;;5075008;28;20074;-77
2021/06/04 09:47:12;;;;;;;1.67;0.60;;;18.70;99.90;;;;;;5074977;28;20021;-77
2021/06/04 09:49:40;;;;;;;0.68;0.65;;;18.80;99.90;;;;;;5074998;28;20028;-78
2021/06/04 09:52:21;;;;;;;0.45;0.45;;;19.00;99.90;;;;;;5074858;28;20103;-77
2021/06/04 09:55:06;;;;;;;1.35;0.80;;;19.10;99.90;;;;;;5074934;28;20029;-77
2021/06/04 09:57:32;;;;;;;0.68;0.68;;;18.90;99.90;;;;;;5074748;28;20032;-77
2021/06/04 10:00:20;;;;;;;0.90;0.60;;;18.60;99.90;;;;;;5074461;28;20033;-77
2021/06/04 10:02:46;;;;;;;0.85;0.60;;;18.40;99.90;;;;;;5074792;28;20381;-77
2021/06/04 10:05:18;;;;;;;0.77;0.77;;;18.30;99.90;;;;;;5074536;28;20042;-77
2021/06/04 10:07:45;;;;;;;0.85;0.77;;;18.40;99.90;;;;;;5074354;28;20025;-77
2021/06/04 10:10:24;;;;;;;0.60;0.60;;;18.30;99.90;;;;;;5074622;28;20445;-78
2021/06/04 10:12:57;;;;;;;1.40;0.50;;;18.20;99.90;;;;;;5074679;28;20024;-77
2021/06/04 10:15:40;;;;;;;0.75;0.60;;;18.10;99.90;;;;;;5074408;28;20028;-78
2021/06/04 10:18:31;;;;;;;0.55;0.55;;;18.10;99.90;;;;;;5074454;28;20020;-77
2021/06/04 10:21:11;;;;;;;0.77;0.60;;;17.70;99.90;;;;;;5074368;28;20056;-77
2021/06/04 10:23:43;;;;;;;0.68;0.60;;;17.60;99.90;;;;;;5074325;28;20539;-77
2021/06/04 10:26:43;;;;;;;0.77;0.73;;;17.80;99.90;;;;;;5074242;28;20028;-77
2021/06/04 10:29:09;;;;;;;0.80;0.80;;;18.00;99.90;;;;;;5073732;28;20111;-77
2021/06/04 10:31:37;;;;;;;1.33;0.80;;;18.20;99.90;;;;;;5072770;28;20119;-77
2021/06/04 10:34:31;;;;;;;0.90;0.90;;;18.20;99.90;;;;;;5074089;28;20024;-77
2021/06/04 10:36:59;;;;;;;4.32;2.00;;;18.20;99.90;;;;;;5074047;28;20390;-77
2021/06/04 10:40:09;;;;;;;0.55;0.55;;;18.10;99.90;;;;;;5073706;28;20035;-77
2021/06/04 10:42:34;;;;;;;1.00;0.90;;;17.90;99.90;;;;;;5035359;28;20040;-77
2021/06/04 10:45:16;;;;;;;0.80;0.73;;;18.00;99.90;;;;;;5073731;28;20539;-77
2021/06/04 10:48:15;;;;;;;0.70;0.70;;;17.90;99.90;;;;;;5073765;28;20107;-78
2021/06/04 10:50:46;;;;;;;1.15;0.60;;;17.90;99.90;;;;;;5073628;28;20024;-77
2021/06/04 10:53:21;;;;;;;0.73;0.73;;;18.00;99.90;;;;;;5073750;28;20032;-77
2021/06/04 10:55:59;;;;;;;1.55;0.70;;;18.30;99.90;;;;;;5073593;28;20024;-77
2021/06/04 10:58:37;;;;;;;1.35;0.80;;;18.70;99.90;;;;;;5071542;28;20024;-77
2021/06/04 11:01:06;;;;;;;0.70;0.70;;;18.80;99.90;;;;;;5073605;28;20482;-77
2021/06/04 11:03:47;;;;;;;2.17;0.95;;;18.90;99.90;;;;;;5073313;28;20033;-77
2021/06/04 11:06:34;;;;;;;1.85;0.70;;;18.80;99.90;;;;;;5073511;28;20029;-78
2021/06/04 11:09:15;;;;;;;1.17;0.80;;;18.90;99.90;;;;;;5073404;28;20103;-77
2021/06/04 11:12:02;;;;;;;0.70;0.70;;;18.70;99.90;;;;;;5072994;28;20481;-77
2021/06/04 11:14:56;;;;;;;1.20;1.00;;;18.40;99.90;;;;;;5073004;28;20029;-77
2021/06/04 11:17:43;;;;;;;1.77;1.67;;;18.30;99.90;;;;;;5072667;28;20028;-77
2021/06/04 11:20:27;;;;;;;1.70;1.55;;;18.20;99.90;;;;;;5071588;28;20044;-77
2021/06/04 11:23:02;;;;;;;1.65;1.40;;;18.30;99.90;;;;;;5072969;28;20028;-77
2021/06/04 11:25:54;;;;;;;2.10;1.85;;;18.20;99.90;;;;;;5072529;28;20052;-77
2021/06/04 11:28:36;;;;;;;2.00;1.65;;;18.10;99.90;;;;;;5072891;28;20482;-77
2021/06/04 11:31:06;;;;;;;1.67;1.50;;;18.10;99.90;;;;;;5073023;28;20028;-77
2021/06/04 11:33:36;;;;;;;1.67;1.58;;;18.20;99.90;;;;;;5072781;28;20505;-77
2021/06/04 11:36:02;;;;;;;1.27;1.27;;;18.50;99.90;;;;;;5072831;28;20035;-77
2021/06/04 11:38:42;;;;;;;1.50;1.40;;;18.70;99.90;;;;;;5072589;28;20036;-77
2021/06/04 11:41:29;;;;;;;2.30;2.13;;;18.70;99.90;;;;;;5072360;28;20557;-77
2021/06/04 11:44:07;;;;;;;2.00;1.90;;;18.60;99.90;;;;;;5072596;28;20099;-77
2021/06/04 11:46:34;;;;;;;1.95;1.80;;;18.50;99.90;;;;;;5072546;28;20024;-77
2021/06/04 11:49:20;;;;;;;2.95;2.67;;;18.60;99.90;;;;;;5072651;28;20020;-77
2021/06/04 11:51:52;;;;;;;3.53;2.33;;;18.60;99.90;;;;;;5072526;28;20024;-77
2021/06/04 11:54:24;;;;;;;2.85;2.50;;;18.40;99.90;;;;;;5072783;28;20102;-77
2021/06/04 11:57:12;;;;;;;3.33;3.03;;;18.20;99.90;;;;;;5072703;28;20039;-77
2021/06/04 11:59:47;;;;;;;2.78;2.58;;;18.20;99.90;;;;;;5072371;28;20021;-78
2021/06/04 12:02:50;;;;;;;3.88;2.85;;;18.10;99.90;;;;;;5072572;28;20028;-77
2021/06/04 12:05:21;;;;;;;2.78;2.58;;;18.20;99.90;;;;;;5072431;28;20112;-77
2021/06/04 12:08:06;;;;;;;2.90;2.65;;;18.10;99.90;;;;;;5072188;28;20428;-77
2021/06/04 12:10:49;;;;;;;4.18;3.33;;;18.00;99.90;;;;;;5071980;28;20025;-77
2021/06/04 12:13:40;;;;;;;3.00;2.70;;;17.90;99.90;;;;;;5072339;28;20436;-77
2021/06/04 12:16:21;;;;;;;4.03;2.70;;;17.80;99.90;;;;;;5072298;28;20052;-77
2021/06/04 12:19:17;;;;;;;3.47;3.17;;;17.60;99.90;;;;;;5071973;28;20127;-77
2021/06/04 12:21:45;;;;;;;3.80;2.60;;;17.50;99.90;;;;;;5071823;28;20024;-77
2021/06/04 12:24:17;;;;;;;3.97;2.95;;;17.30;99.90;;;;;;5072128;28;20095;-77
2021/06/04 12:26:47;;;;;;;3.75;2.90;;;17.10;99.90;;;;;;5072023;28;20513;-77
2021/06/04 12:29:22;;;;;;;4.20;2.53;;;16.80;99.90;;;;;;5070893;28;20389;-77
2021/06/04 12:31:53;;;;;;;2.42;2.00;;;16.50;99.90;;;;;;5074974;28;20029;-77
2021/06/04 12:35:10;;;;;;;3.45;3.17;;;16.20;99.90;;;;;;5075116;28;20028;-77
2021/06/04 12:37:33;;;;;;;3.13;2.30;;;16.10;99.90;;;;;;5072267;28;20102;-76
2021/06/04 12:52:29;;;;;;;5.30;0.70;;;15.60;99.90;;;;;;6238801;22;371915;-76
2021/06/04 12:55:14;;;;;;;0.88;0.45;;;20.20;99.90;;;;;;6253973;23;20000;-76
2021/06/04 12:57:41;;;;;;;1.70;0.60;;;20.70;99.90;;;;;;6253659;22;20003;-76
2021/06/04 13:00:33;;;;;;;0.80;0.40;;;20.30;99.90;;;;;;6254065;22;20336;-76
2021/06/04 13:03:26;;;;;;;0.70;0.30;;;20.40;99.90;;;;;;6254036;22;19996;-76
2021/06/04 13:05:53;;;;;;;1.00;0.52;;;20.90;99.90;;;;;;6253950;22;20063;-76
2021/06/04 13:08:25;;;;;;;1.00;0.90;;;21.20;99.90;;;;;;6253950;22;19999;-76
2021/06/04 13:10:55;;;;;;;2.40;0.70;;;21.40;99.90;;;;;;6253889;22;19999;-76
2021/06/04 13:13:30;;;;;;;1.35;0.80;;;21.50;99.90;;;;;;6253569;22;20020;-76
2021/06/04 13:16:12;;;;;;;2.47;0.88;;;21.20;99.90;;;;;;6253841;22;20067;-76
2021/06/04 13:18:38;;;;;;;0.65;0.57;;;21.30;99.90;;;;;;6252162;22;20007;-77
2021/06/04 13:21:33;;;;;;;1.38;0.50;;;22.30;99.90;;;;;;6253756;22;20000;-76
2021/06/04 13:24:14;;;;;;;1.08;0.50;;;21.80;99.90;;;;;;6253796;22;20019;-76
2021/06/04 13:26:50;;;;;;;0.75;0.45;;;22.20;99.90;;;;;;6253193;22;20362;-77
2021/06/04 13:29:31;;;;;;;0.45;0.45;;;22.00;99.90;;;;;;6253812;22;19992;-76
2021/06/04 13:32:15;;;;;;;3.20;0.68;;;21.80;99.90;;;;;;6253569;22;20046;-77
2021/06/04 13:34:43;;;;;;;0.40;0.40;;;21.40;99.90;;;;;;6253625;22;20000;-77